sensor_id;sensor_type;location;lat;lon;timestamp;P1;durP1;ratioP1;P2;durP2;ratioP2
38413;SDS011;24195;48.654;9.294;2022-09-09T00:00:16;3.30;;;1.73;;
38413;SDS011;24195;48.654;9.294;2022-09-09T00:02:57;3.60;;;1.63;;
38413;SDS011;24195;48.654;9.294;2022-09-09T00:05:41;3.60;;;1.70;;
38413;SDS011;24195;48.654;9.294;2022-09-09T00:08:20;2.20;;;1.33;;
38413;SDS011;24195;48.654;9.294;2022-09-09T00:10:58;3.17;;;1.47;;
38413;SDS011;24195;48.654;9.294;2022-09-09T00:13:44;1.90;;;1.70;;
38413;SDS011;24195;48.654;9.294;2022-09-09T00:21:19;2.17;;;1.43;;
38413;SDS011;24195;48.654;9.294;2022-09-09T00:23:54;4.03;;;1.50;;
38413;SDS011;24195;48.654;9.294;2022-09-09T00:26:22;1.73;;;1.63;;
38413;SDS011;24195;48.654;9.294;2022-09-09T00:31:47;2.67;;;1.43;;
38413;SDS011;24195;48.654;9.294;2022-09-09T00:34:21;1.73;;;1.50;;
38413;SDS011;24195;48.654;9.294;2022-09-09T00:36:50;3.63;;;1.30;;
38413;SDS011;24195;48.654;9.294;2022-09-09T00:39:24;1.53;;;1.43;;
38413;SDS011;24195;48.654;9.294;2022-09-09T00:44:39;2.63;;;1.60;;
38413;SDS011;24195;48.654;9.294;2022-09-09T00:47:53;4.47;;;1.47;;
38413;SDS011;24195;48.654;9.294;2022-09-09T00:56:14;2.77;;;1.80;;
38413;SDS011;24195;48.654;9.294;2022-09-09T00:58:52;1.87;;;1.30;;
38413;SDS011;24195;48.654;9.294;2022-09-09T01:01:31;2.20;;;1.57;;
38413;SDS011;24195;48.654;9.294;2022-09-09T01:03:57;2.00;;;1.80;;
38413;SDS011;24195;48.654;9.294;2022-09-09T01:06:31;2.00;;;1.50;;
38413;SDS011;24195;48.654;9.294;2022-09-09T01:17:05;1.80;;;1.63;;
38413;SDS011;24195;48.654;9.294;2022-09-09T01:19:40;2.10;;;1.50;;
38413;SDS011;24195;48.654;9.294;2022-09-09T01:27:50;1.73;;;1.63;;
38413;SDS011;24195;48.654;9.294;2022-09-09T01:30:20;3.37;;;1.77;;
38413;SDS011;24195;48.654;9.294;2022-09-09T01:32:50;1.47;;;1.37;;
38413;SDS011;24195;48.654;9.294;2022-09-09T01:37:55;1.50;;;1.40;;
38413;SDS011;24195;48.654;9.294;2022-09-09T01:40:24;2.10;;;1.20;;
38413;SDS011;24195;48.654;9.294;2022-09-09T01:42:50;2.73;;;1.50;;
38413;SDS011;24195;48.654;9.294;2022-09-09T01:45:17;1.43;;;1.30;;
38413;SDS011;24195;48.654;9.294;2022-09-09T01:47:42;1.50;;;1.40;;
38413;SDS011;24195;48.654;9.294;2022-09-09T01:50:09;2.63;;;1.53;;
38413;SDS011;24195;48.654;9.294;2022-09-09T01:52:38;2.87;;;1.60;;
38413;SDS011;24195;48.654;9.294;2022-09-09T01:55:04;1.87;;;1.77;;
38413;SDS011;24195;48.654;9.294;2022-09-09T01:57:33;1.63;;;1.53;;
38413;SDS011;24195;48.654;9.294;2022-09-09T02:00:09;2.73;;;1.43;;
38413;SDS011;24195;48.654;9.294;2022-09-09T02:08:21;2.10;;;1.30;;
38413;SDS011;24195;48.654;9.294;2022-09-09T02:13:40;1.50;;;1.30;;
38413;SDS011;24195;48.654;9.294;2022-09-09T02:18:57;2.10;;;1.90;;
38413;SDS011;24195;48.654;9.294;2022-09-09T02:21:37;4.37;;;1.90;;
38413;SDS011;24195;48.654;9.294;2022-09-09T02:24:05;2.00;;;1.80;;
38413;SDS011;24195;48.654;9.294;2022-09-09T02:26:35;1.80;;;1.23;;
38413;SDS011;24195;48.654;9.294;2022-09-09T02:29:06;1.20;;;1.20;;
38413;SDS011;24195;48.654;9.294;2022-09-09T02:31:48;4.70;;;1.67;;
38413;SDS011;24195;48.654;9.294;2022-09-09T02:34:16;1.43;;;1.30;;
38413;SDS011;24195;48.654;9.294;2022-09-09T02:36:44;2.50;;;1.40;;
38413;SDS011;24195;48.654;9.294;2022-09-09T02:39:11;3.60;;;2.23;;
38413;SDS011;24195;48.654;9.294;2022-09-09T02:41:39;2.43;;;1.60;;
38413;SDS011;24195;48.654;9.294;2022-09-09T02:44:13;1.33;;;1.23;;
38413;SDS011;24195;48.654;9.294;2022-09-09T02:50:04;2.47;;;1.63;;
38413;SDS011;24195;48.654;9.294;2022-09-09T02:58:05;2.10;;;1.80;;
38413;SDS011;24195;48.654;9.294;2022-09-09T03:00:33;3.47;;;2.30;;
38413;SDS011;24195;48.654;9.294;2022-09-09T03:03:01;3.63;;;2.07;;
38413;SDS011;24195;48.654;9.294;2022-09-09T03:05:30;2.10;;;1.60;;
38413;SDS011;24195;48.654;9.294;2022-09-09T03:07:56;3.03;;;1.90;;
38413;SDS011;24195;48.654;9.294;2022-09-09T03:10:22;2.07;;;1.27;;
38413;SDS011;24195;48.654;9.294;2022-09-09T03:12:48;4.70;;;1.77;;
38413;SDS011;24195;48.654;9.294;2022-09-09T03:15:13;2.00;;;1.70;;
38413;SDS011;24195;48.654;9.294;2022-09-09T03:17:40;2.13;;;1.83;;
38413;SDS011;24195;48.654;9.294;2022-09-09T03:20:06;2.30;;;1.63;;
38413;SDS011;24195;48.654;9.294;2022-09-09T03:22:33;4.10;;;2.37;;
38413;SDS011;24195;48.654;9.294;2022-09-09T03:24:59;2.13;;;1.87;;
38413;SDS011;24195;48.654;9.294;2022-09-09T03:27:25;3.27;;;1.43;;
38413;SDS011;24195;48.654;9.294;2022-09-09T03:29:50;2.03;;;1.93;;
38413;SDS011;24195;48.654;9.294;2022-09-09T03:32:17;1.90;;;1.80;;
38413;SDS011;24195;48.654;9.294;2022-09-09T03:34:43;2.30;;;1.80;;
38413;SDS011;24195;48.654;9.294;2022-09-09T03:37:09;2.97;;;1.93;;
38413;SDS011;24195;48.654;9.294;2022-09-09T03:39:34;2.60;;;2.00;;
38413;SDS011;24195;48.654;9.294;2022-09-09T03:42:00;3.10;;;2.10;;
38413;SDS011;24195;48.654;9.294;2022-09-09T03:44:28;1.77;;;1.63;;
38413;SDS011;24195;48.654;9.294;2022-09-09T03:46:55;3.73;;;2.07;;
38413;SDS011;24195;48.654;9.294;2022-09-09T03:49:21;2.00;;;1.90;;
38413;SDS011;24195;48.654;9.294;2022-09-09T03:51:47;2.10;;;1.90;;
38413;SDS011;24195;48.654;9.294;2022-09-09T03:54:13;2.73;;;1.73;;
38413;SDS011;24195;48.654;9.294;2022-09-09T03:56:38;3.50;;;1.90;;
38413;SDS011;24195;48.654;9.294;2022-09-09T03:59:06;1.80;;;1.67;;
38413;SDS011;24195;48.654;9.294;2022-09-09T04:01:33;4.50;;;2.03;;
38413;SDS011;24195;48.654;9.294;2022-09-09T04:03:59;2.90;;;2.10;;
38413;SDS011;24195;48.654;9.294;2022-09-09T04:06:26;2.20;;;1.83;;
38413;SDS011;24195;48.654;9.294;2022-09-09T04:08:52;5.30;;;2.03;;
38413;SDS011;24195;48.654;9.294;2022-09-09T04:11:17;2.20;;;1.90;;
38413;SDS011;24195;48.654;9.294;2022-09-09T04:13:46;2.97;;;1.80;;
38413;SDS011;24195;48.654;9.294;2022-09-09T04:16:12;4.00;;;2.00;;
38413;SDS011;24195;48.654;9.294;2022-09-09T04:18:41;3.20;;;2.00;;
38413;SDS011;24195;48.654;9.294;2022-09-09T04:21:08;3.33;;;2.00;;
38413;SDS011;24195;48.654;9.294;2022-09-09T04:23:44;3.63;;;1.80;;
38413;SDS011;24195;48.654;9.294;2022-09-09T04:26:10;2.97;;;1.77;;
38413;SDS011;24195;48.654;9.294;2022-09-09T04:28:36;1.63;;;1.53;;
38413;SDS011;24195;48.654;9.294;2022-09-09T04:31:10;2.10;;;1.60;;
38413;SDS011;24195;48.654;9.294;2022-09-09T04:33:51;2.10;;;1.80;;
38413;SDS011;24195;48.654;9.294;2022-09-09T04:36:17;3.43;;;2.03;;
38413;SDS011;24195;48.654;9.294;2022-09-09T04:38:44;3.20;;;1.87;;
38413;SDS011;24195;48.654;9.294;2022-09-09T04:41:10;3.80;;;1.90;;
38413;SDS011;24195;48.654;9.294;2022-09-09T04:43:36;5.17;;;1.93;;
38413;SDS011;24195;48.654;9.294;2022-09-09T06:14:22;4.33;;;2.10;;
38413;SDS011;24195;48.654;9.294;2022-09-09T06:16:50;5.20;;;2.07;;
38413;SDS011;24195;48.654;9.294;2022-09-09T06:19:16;6.00;;;1.80;;
38413;SDS011;24195;48.654;9.294;2022-09-09T06:21:54;2.20;;;1.80;;
38413;SDS011;24195;48.654;9.294;2022-09-09T06:24:23;2.37;;;1.73;;
38413;SDS011;24195;48.654;9.294;2022-09-09T06:26:49;2.70;;;2.30;;
38413;SDS011;24195;48.654;9.294;2022-09-09T06:29:14;3.57;;;2.00;;
38413;SDS011;24195;48.654;9.294;2022-09-09T06:31:40;2.43;;;2.23;;
38413;SDS011;24195;48.654;9.294;2022-09-09T06:34:12;2.87;;;1.70;;
38413;SDS011;24195;48.654;9.294;2022-09-09T06:36:51;6.07;;;2.67;;
38413;SDS011;24195;48.654;9.294;2022-09-09T06:39:17;3.40;;;2.27;;
38413;SDS011;24195;48.654;9.294;2022-09-09T06:41:42;3.77;;;2.03;;
38413;SDS011;24195;48.654;9.294;2022-09-09T06:44:14;2.93;;;1.90;;
38413;SDS011;24195;48.654;9.294;2022-09-09T06:46:50;2.37;;;1.80;;
38413;SDS011;24195;48.654;9.294;2022-09-09T06:49:32;4.47;;;1.90;;
38413;SDS011;24195;48.654;9.294;2022-09-09T06:51:57;2.27;;;1.73;;
38413;SDS011;24195;48.654;9.294;2022-09-09T06:54:34;3.13;;;1.70;;
38413;SDS011;24195;48.654;9.294;2022-09-09T06:57:02;3.03;;;2.00;;
38413;SDS011;24195;48.654;9.294;2022-09-09T06:59:27;4.40;;;1.73;;
38413;SDS011;24195;48.654;9.294;2022-09-09T07:01:55;1.93;;;1.50;;
38413;SDS011;24195;48.654;9.294;2022-09-09T07:04:21;2.07;;;1.80;;
38413;SDS011;24195;48.654;9.294;2022-09-09T07:06:47;2.40;;;1.70;;
38413;SDS011;24195;48.654;9.294;2022-09-09T07:09:13;1.83;;;1.73;;
38413;SDS011;24195;48.654;9.294;2022-09-09T07:11:42;3.73;;;1.60;;
38413;SDS011;24195;48.654;9.294;2022-09-09T07:14:09;3.07;;;2.30;;
38413;SDS011;24195;48.654;9.294;2022-09-09T07:16:38;6.83;;;2.00;;
38413;SDS011;24195;48.654;9.294;2022-09-09T07:19:05;1.83;;;1.50;;
38413;SDS011;24195;48.654;9.294;2022-09-09T07:21:32;2.20;;;1.40;;
38413;SDS011;24195;48.654;9.294;2022-09-09T07:23:58;1.70;;;1.50;;
38413;SDS011;24195;48.654;9.294;2022-09-09T07:26:25;2.43;;;1.80;;
38413;SDS011;24195;48.654;9.294;2022-09-09T07:28:53;2.03;;;1.87;;
38413;SDS011;24195;48.654;9.294;2022-09-09T07:31:26;2.60;;;1.57;;
38413;SDS011;24195;48.654;9.294;2022-09-09T07:33:55;2.43;;;1.60;;
38413;SDS011;24195;48.654;9.294;2022-09-09T07:36:22;3.40;;;1.83;;
38413;SDS011;24195;48.654;9.294;2022-09-09T07:39:06;1.60;;;1.30;;
38413;SDS011;24195;48.654;9.294;2022-09-09T07:44:06;2.30;;;1.50;;
38413;SDS011;24195;48.654;9.294;2022-09-09T07:46:33;3.40;;;1.60;;
38413;SDS011;24195;48.654;9.294;2022-09-09T07:49:02;3.60;;;1.47;;
38413;SDS011;24195;48.654;9.294;2022-09-09T07:51:31;1.70;;;1.60;;
38413;SDS011;24195;48.654;9.294;2022-09-09T07:54:14;4.40;;;1.63;;
38413;SDS011;24195;48.654;9.294;2022-09-09T07:56:48;2.50;;;1.40;;
38413;SDS011;24195;48.654;9.294;2022-09-09T07:59:23;2.10;;;1.50;;
38413;SDS011;24195;48.654;9.294;2022-09-09T08:02:12;3.20;;;1.30;;
38413;SDS011;24195;48.654;9.294;2022-09-09T08:04:38;4.60;;;1.40;;
38413;SDS011;24195;48.654;9.294;2022-09-09T08:07:04;2.23;;;1.23;;
38413;SDS011;24195;48.654;9.294;2022-09-09T08:09:29;2.90;;;1.20;;
38413;SDS011;24195;48.654;9.294;2022-09-09T08:11:57;4.33;;;1.57;;
38413;SDS011;24195;48.654;9.294;2022-09-09T08:14:23;4.23;;;1.63;;
38413;SDS011;24195;48.654;9.294;2022-09-09T08:16:51;2.67;;;1.20;;
38413;SDS011;24195;48.654;9.294;2022-09-09T08:19:27;4.03;;;1.20;;
38413;SDS011;24195;48.654;9.294;2022-09-09T08:22:01;1.63;;;1.10;;
38413;SDS011;24195;48.654;9.294;2022-09-09T08:24:28;1.63;;;1.27;;
38413;SDS011;24195;48.654;9.294;2022-09-09T08:26:54;1.70;;;1.50;;
38413;SDS011;24195;48.654;9.294;2022-09-09T08:29:21;1.97;;;1.60;;
38413;SDS011;24195;48.654;9.294;2022-09-09T08:31:49;4.57;;;1.83;;
38413;SDS011;24195;48.654;9.294;2022-09-09T08:34:19;1.60;;;1.43;;
38413;SDS011;24195;48.654;9.294;2022-09-09T08:36:46;4.37;;;1.60;;
38413;SDS011;24195;48.654;9.294;2022-09-09T08:39:16;2.00;;;1.40;;
38413;SDS011;24195;48.654;9.294;2022-09-09T08:52:28;3.90;;;1.43;;
38413;SDS011;24195;48.654;9.294;2022-09-09T08:55:20;1.57;;;1.40;;
38413;SDS011;24195;48.654;9.294;2022-09-09T08:57:49;2.50;;;1.50;;
38413;SDS011;24195;48.654;9.294;2022-09-09T09:00:16;2.10;;;1.60;;
38413;SDS011;24195;48.654;9.294;2022-09-09T09:03:02;2.60;;;1.50;;
38413;SDS011;24195;48.654;9.294;2022-09-09T09:05:39;3.40;;;1.23;;
38413;SDS011;24195;48.654;9.294;2022-09-09T09:10:59;2.53;;;1.43;;
38413;SDS011;24195;48.654;9.294;2022-09-09T09:13:32;1.27;;;1.00;;
38413;SDS011;24195;48.654;9.294;2022-09-09T09:19:03;3.00;;;1.50;;
38413;SDS011;24195;48.654;9.294;2022-09-09T09:21:34;1.43;;;1.33;;
38413;SDS011;24195;48.654;9.294;2022-09-09T09:24:15;3.83;;;1.30;;
38413;SDS011;24195;48.654;9.294;2022-09-09T09:26:48;4.60;;;1.30;;
38413;SDS011;24195;48.654;9.294;2022-09-09T09:29:15;1.60;;;1.47;;
38413;SDS011;24195;48.654;9.294;2022-09-09T09:31:53;2.13;;;1.07;;
38413;SDS011;24195;48.654;9.294;2022-09-09T09:34:22;3.27;;;1.37;;
38413;SDS011;24195;48.654;9.294;2022-09-09T09:39:32;3.67;;;1.07;;
38413;SDS011;24195;48.654;9.294;2022-09-09T09:42:22;3.77;;;1.53;;
38413;SDS011;24195;48.654;9.294;2022-09-09T09:44:48;2.20;;;1.00;;
38413;SDS011;24195;48.654;9.294;2022-09-09T09:47:18;5.90;;;1.50;;
38413;SDS011;24195;48.654;9.294;2022-09-09T09:49:52;4.10;;;1.30;;
38413;SDS011;24195;48.654;9.294;2022-09-09T09:52:33;2.03;;;0.50;;
38413;SDS011;24195;48.654;9.294;2022-09-09T09:55:17;0.50;;;0.40;;
38413;SDS011;24195;48.654;9.294;2022-09-09T09:57:43;1.87;;;0.80;;
38413;SDS011;24195;48.654;9.294;2022-09-09T10:00:19;0.67;;;0.57;;
38413;SDS011;24195;48.654;9.294;2022-09-09T10:03:38;1.03;;;0.90;;
38413;SDS011;24195;48.654;9.294;2022-09-09T10:06:05;2.00;;;1.17;;
38413;SDS011;24195;48.654;9.294;2022-09-09T10:08:44;4.67;;;1.10;;
38413;SDS011;24195;48.654;9.294;2022-09-09T10:19:36;1.83;;;0.93;;
38413;SDS011;24195;48.654;9.294;2022-09-09T10:33:08;1.97;;;1.00;;
38413;SDS011;24195;48.654;9.294;2022-09-09T10:38:53;1.40;;;0.90;;
38413;SDS011;24195;48.654;9.294;2022-09-09T10:50:40;3.13;;;1.00;;
38413;SDS011;24195;48.654;9.294;2022-09-09T10:53:22;3.10;;;1.27;;
38413;SDS011;24195;48.654;9.294;2022-09-09T10:55:59;2.63;;;0.90;;
38413;SDS011;24195;48.654;9.294;2022-09-09T10:58:55;2.00;;;1.10;;
38413;SDS011;24195;48.654;9.294;2022-09-09T11:01:28;2.83;;;1.27;;
38413;SDS011;24195;48.654;9.294;2022-09-09T11:04:01;3.40;;;1.20;;
38413;SDS011;24195;48.654;9.294;2022-09-09T11:06:36;1.90;;;1.00;;
38413;SDS011;24195;48.654;9.294;2022-09-09T11:09:05;2.30;;;0.90;;
38413;SDS011;24195;48.654;9.294;2022-09-09T11:11:39;2.60;;;1.37;;
38413;SDS011;24195;48.654;9.294;2022-09-09T11:14:15;2.07;;;1.03;;
38413;SDS011;24195;48.654;9.294;2022-09-09T11:17:03;3.37;;;1.40;;
38413;SDS011;24195;48.654;9.294;2022-09-09T11:19:40;3.20;;;1.30;;
38413;SDS011;24195;48.654;9.294;2022-09-09T11:22:56;3.93;;;1.30;;
38413;SDS011;24195;48.654;9.294;2022-09-09T11:25:35;1.50;;;0.90;;
38413;SDS011;24195;48.654;9.294;2022-09-09T11:44:53;3.63;;;1.10;;
38413;SDS011;24195;48.654;9.294;2022-09-09T11:47:24;1.73;;;1.30;;
38413;SDS011;24195;48.654;9.294;2022-09-09T11:49:55;1.33;;;0.80;;
38413;SDS011;24195;48.654;9.294;2022-09-09T11:53:03;0.93;;;0.80;;
38413;SDS011;24195;48.654;9.294;2022-09-09T11:56:00;1.43;;;1.10;;
38413;SDS011;24195;48.654;9.294;2022-09-09T11:58:42;3.30;;;0.70;;
38413;SDS011;24195;48.654;9.294;2022-09-09T12:01:28;1.50;;;0.77;;
38413;SDS011;24195;48.654;9.294;2022-09-09T12:04:09;0.67;;;0.60;;
38413;SDS011;24195;48.654;9.294;2022-09-09T12:07:03;0.40;;;0.30;;
38413;SDS011;24195;48.654;9.294;2022-09-09T12:09:56;1.17;;;0.50;;
38413;SDS011;24195;48.654;9.294;2022-09-09T12:12:31;2.40;;;0.60;;
38413;SDS011;24195;48.654;9.294;2022-09-09T12:14:59;1.33;;;0.43;;
38413;SDS011;24195;48.654;9.294;2022-09-09T12:17:31;0.97;;;0.30;;
38413;SDS011;24195;48.654;9.294;2022-09-09T12:20:16;1.53;;;0.70;;
38413;SDS011;24195;48.654;9.294;2022-09-09T12:25:44;0.37;;;0.37;;
38413;SDS011;24195;48.654;9.294;2022-09-09T12:28:20;0.70;;;0.50;;
38413;SDS011;24195;48.654;9.294;2022-09-09T12:31:14;0.80;;;0.50;;
38413;SDS011;24195;48.654;9.294;2022-09-09T12:34:17;2.80;;;0.40;;
38413;SDS011;24195;48.654;9.294;2022-09-09T12:36:58;1.30;;;0.47;;
38413;SDS011;24195;48.654;9.294;2022-09-09T12:39:30;3.70;;;0.70;;
38413;SDS011;24195;48.654;9.294;2022-09-09T12:42:00;2.83;;;0.60;;
38413;SDS011;24195;48.654;9.294;2022-09-09T12:44:28;2.00;;;0.60;;
38413;SDS011;24195;48.654;9.294;2022-09-09T12:46:55;1.50;;;0.60;;
38413;SDS011;24195;48.654;9.294;2022-09-09T12:49:26;1.83;;;1.00;;
38413;SDS011;24195;48.654;9.294;2022-09-09T12:51:56;0.70;;;0.70;;
38413;SDS011;24195;48.654;9.294;2022-09-09T12:54:22;1.60;;;0.67;;
38413;SDS011;24195;48.654;9.294;2022-09-09T12:56:48;1.93;;;0.70;;
38413;SDS011;24195;48.654;9.294;2022-09-09T12:59:22;1.20;;;0.73;;
38413;SDS011;24195;48.654;9.294;2022-09-09T13:01:56;1.70;;;0.70;;
38413;SDS011;24195;48.654;9.294;2022-09-09T13:04:25;2.90;;;1.00;;
38413;SDS011;24195;48.654;9.294;2022-09-09T13:06:53;2.87;;;0.80;;
38413;SDS011;24195;48.654;9.294;2022-09-09T13:09:29;1.40;;;0.60;;
38413;SDS011;24195;48.654;9.294;2022-09-09T13:11:55;0.87;;;0.53;;
38413;SDS011;24195;48.654;9.294;2022-09-09T13:14:28;2.47;;;0.70;;
38413;SDS011;24195;48.654;9.294;2022-09-09T13:16:58;1.40;;;0.60;;
38413;SDS011;24195;48.654;9.294;2022-09-09T13:19:37;1.03;;;0.43;;
38413;SDS011;24195;48.654;9.294;2022-09-09T13:22:16;1.53;;;0.67;;
38413;SDS011;24195;48.654;9.294;2022-09-09T13:30:37;2.43;;;0.63;;
38413;SDS011;24195;48.654;9.294;2022-09-09T13:35:34;0.73;;;0.57;;
38413;SDS011;24195;48.654;9.294;2022-09-09T13:38:12;2.30;;;0.70;;
38413;SDS011;24195;48.654;9.294;2022-09-09T13:40:40;1.33;;;0.60;;
38413;SDS011;24195;48.654;9.294;2022-09-09T13:43:20;2.70;;;0.70;;
38413;SDS011;24195;48.654;9.294;2022-09-09T13:46:01;3.10;;;1.03;;
38413;SDS011;24195;48.654;9.294;2022-09-09T13:48:53;2.60;;;0.70;;
38413;SDS011;24195;48.654;9.294;2022-09-09T13:52:02;3.10;;;0.73;;
38413;SDS011;24195;48.654;9.294;2022-09-09T13:54:19;1.43;;;0.60;;
38413;SDS011;24195;48.654;9.294;2022-09-09T13:56:55;1.43;;;0.97;;
38413;SDS011;24195;48.654;9.294;2022-09-09T13:59:47;3.80;;;1.23;;
38413;SDS011;24195;48.654;9.294;2022-09-09T14:02:37;1.43;;;0.77;;
38413;SDS011;24195;48.654;9.294;2022-09-09T14:05:14;2.07;;;1.00;;
38413;SDS011;24195;48.654;9.294;2022-09-09T14:07:41;1.43;;;0.60;;
38413;SDS011;24195;48.654;9.294;2022-09-09T14:10:08;2.73;;;0.60;;
38413;SDS011;24195;48.654;9.294;2022-09-09T14:12:34;1.70;;;0.67;;
38413;SDS011;24195;48.654;9.294;2022-09-09T14:15:06;2.83;;;0.60;;
38413;SDS011;24195;48.654;9.294;2022-09-09T14:18:03;2.47;;;0.80;;
38413;SDS011;24195;48.654;9.294;2022-09-09T14:20:37;3.07;;;1.03;;
38413;SDS011;24195;48.654;9.294;2022-09-09T14:23:17;2.20;;;0.70;;
38413;SDS011;24195;48.654;9.294;2022-09-09T14:25:43;1.03;;;0.60;;
38413;SDS011;24195;48.654;9.294;2022-09-09T14:28:11;0.53;;;0.40;;
38413;SDS011;24195;48.654;9.294;2022-09-09T14:30:39;1.33;;;0.57;;
38413;SDS011;24195;48.654;9.294;2022-09-09T14:33:12;0.87;;;0.50;;
38413;SDS011;24195;48.654;9.294;2022-09-09T14:36:00;1.47;;;0.60;;
38413;SDS011;24195;48.654;9.294;2022-09-09T14:38:31;1.10;;;0.47;;
38413;SDS011;24195;48.654;9.294;2022-09-09T14:40:59;2.70;;;1.00;;
38413;SDS011;24195;48.654;9.294;2022-09-09T14:43:28;2.37;;;0.80;;
38413;SDS011;24195;48.654;9.294;2022-09-09T14:45:55;1.73;;;0.53;;
38413;SDS011;24195;48.654;9.294;2022-09-09T14:48:20;2.00;;;0.70;;
38413;SDS011;24195;48.654;9.294;2022-09-09T14:50:46;2.53;;;0.40;;
38413;SDS011;24195;48.654;9.294;2022-09-09T14:53:12;1.27;;;0.50;;
38413;SDS011;24195;48.654;9.294;2022-09-09T14:55:39;1.97;;;0.60;;
38413;SDS011;24195;48.654;9.294;2022-09-09T14:58:05;2.80;;;0.50;;
38413;SDS011;24195;48.654;9.294;2022-09-09T15:00:31;0.67;;;0.40;;
38413;SDS011;24195;48.654;9.294;2022-09-09T15:02:57;1.63;;;0.60;;
38413;SDS011;24195;48.654;9.294;2022-09-09T15:05:22;2.97;;;0.60;;
38413;SDS011;24195;48.654;9.294;2022-09-09T15:07:50;1.33;;;0.53;;
38413;SDS011;24195;48.654;9.294;2022-09-09T15:10:16;1.43;;;0.57;;
38413;SDS011;24195;48.654;9.294;2022-09-09T15:12:48;1.60;;;0.60;;
38413;SDS011;24195;48.654;9.294;2022-09-09T15:15:14;0.90;;;0.50;;
38413;SDS011;24195;48.654;9.294;2022-09-09T15:17:40;2.33;;;0.80;;
38413;SDS011;24195;48.654;9.294;2022-09-09T15:20:05;3.00;;;0.90;;
38413;SDS011;24195;48.654;9.294;2022-09-09T15:22:32;1.00;;;0.53;;
38413;SDS011;24195;48.654;9.294;2022-09-09T15:24:58;3.83;;;0.90;;
38413;SDS011;24195;48.654;9.294;2022-09-09T15:27:27;1.93;;;0.70;;
38413;SDS011;24195;48.654;9.294;2022-09-09T15:29:52;0.77;;;0.50;;
38413;SDS011;24195;48.654;9.294;2022-09-09T15:32:18;1.90;;;1.00;;
38413;SDS011;24195;48.654;9.294;2022-09-09T15:34:59;2.73;;;0.80;;
38413;SDS011;24195;48.654;9.294;2022-09-09T15:37:25;1.83;;;0.80;;
38413;SDS011;24195;48.654;9.294;2022-09-09T15:39:51;6.60;;;0.90;;
38413;SDS011;24195;48.654;9.294;2022-09-09T15:42:16;2.87;;;0.70;;
38413;SDS011;24195;48.654;9.294;2022-09-09T15:44:47;3.00;;;0.77;;
38413;SDS011;24195;48.654;9.294;2022-09-09T15:47:12;1.53;;;0.70;;
38413;SDS011;24195;48.654;9.294;2022-09-09T15:49:38;2.93;;;0.50;;
38413;SDS011;24195;48.654;9.294;2022-09-09T15:52:08;1.80;;;0.87;;
38413;SDS011;24195;48.654;9.294;2022-09-09T15:54:36;1.77;;;0.60;;
38413;SDS011;24195;48.654;9.294;2022-09-09T15:57:04;1.30;;;0.70;;
38413;SDS011;24195;48.654;9.294;2022-09-09T15:59:31;4.37;;;0.83;;
38413;SDS011;24195;48.654;9.294;2022-09-09T16:01:58;1.40;;;0.80;;
38413;SDS011;24195;48.654;9.294;2022-09-09T16:04:25;2.03;;;0.67;;
38413;SDS011;24195;48.654;9.294;2022-09-09T16:06:55;0.87;;;0.60;;
38413;SDS011;24195;48.654;9.294;2022-09-09T16:09:28;1.23;;;0.50;;
38413;SDS011;24195;48.654;9.294;2022-09-09T16:11:55;1.30;;;0.87;;
38413;SDS011;24195;48.654;9.294;2022-09-09T16:14:23;2.10;;;0.70;;
38413;SDS011;24195;48.654;9.294;2022-09-09T16:16:50;1.73;;;0.67;;
38413;SDS011;24195;48.654;9.294;2022-09-09T16:19:15;2.00;;;0.50;;
38413;SDS011;24195;48.654;9.294;2022-09-09T16:21:42;2.00;;;0.70;;
38413;SDS011;24195;48.654;9.294;2022-09-09T16:24:16;0.87;;;0.40;;
38413;SDS011;24195;48.654;9.294;2022-09-09T16:26:44;1.07;;;0.50;;
38413;SDS011;24195;48.654;9.294;2022-09-09T16:29:15;1.50;;;0.70;;
38413;SDS011;24195;48.654;9.294;2022-09-09T16:32:00;3.40;;;0.70;;
38413;SDS011;24195;48.654;9.294;2022-09-09T16:34:26;2.00;;;0.60;;
38413;SDS011;24195;48.654;9.294;2022-09-09T16:36:52;1.50;;;0.70;;
38413;SDS011;24195;48.654;9.294;2022-09-09T16:39:19;3.00;;;0.50;;
38413;SDS011;24195;48.654;9.294;2022-09-09T16:41:45;1.07;;;0.53;;
38413;SDS011;24195;48.654;9.294;2022-09-09T16:44:13;1.43;;;0.57;;
38413;SDS011;24195;48.654;9.294;2022-09-09T16:46:41;1.33;;;0.50;;
38413;SDS011;24195;48.654;9.294;2022-09-09T16:49:12;1.33;;;0.73;;
38413;SDS011;24195;48.654;9.294;2022-09-09T16:51:40;0.87;;;0.53;;
38413;SDS011;24195;48.654;9.294;2022-09-09T16:54:18;1.77;;;1.10;;
38413;SDS011;24195;48.654;9.294;2022-09-09T16:56:44;1.47;;;0.50;;
38413;SDS011;24195;48.654;9.294;2022-09-09T16:59:13;3.90;;;0.50;;
38413;SDS011;24195;48.654;9.294;2022-09-09T17:01:41;1.27;;;0.60;;
38413;SDS011;24195;48.654;9.294;2022-09-09T17:04:11;1.23;;;0.50;;
38413;SDS011;24195;48.654;9.294;2022-09-09T17:06:49;2.60;;;0.73;;
38413;SDS011;24195;48.654;9.294;2022-09-09T17:09:16;1.57;;;1.33;;
38413;SDS011;24195;48.654;9.294;2022-09-09T17:11:46;1.60;;;0.77;;
38413;SDS011;24195;48.654;9.294;2022-09-09T17:14:14;1.23;;;0.70;;
38413;SDS011;24195;48.654;9.294;2022-09-09T17:16:41;0.90;;;0.80;;
38413;SDS011;24195;48.654;9.294;2022-09-09T17:19:07;0.97;;;0.80;;
38413;SDS011;24195;48.654;9.294;2022-09-09T17:21:33;1.17;;;0.50;;
38413;SDS011;24195;48.654;9.294;2022-09-09T17:24:05;1.37;;;0.40;;
38413;SDS011;24195;48.654;9.294;2022-09-09T17:26:33;0.70;;;0.43;;
38413;SDS011;24195;48.654;9.294;2022-09-09T17:28:59;0.60;;;0.57;;
38413;SDS011;24195;48.654;9.294;2022-09-09T17:31:26;4.20;;;0.80;;
38413;SDS011;24195;48.654;9.294;2022-09-09T17:33:53;1.13;;;0.80;;
38413;SDS011;24195;48.654;9.294;2022-09-09T17:36:20;0.70;;;0.70;;
38413;SDS011;24195;48.654;9.294;2022-09-09T17:38:48;1.60;;;0.60;;
38413;SDS011;24195;48.654;9.294;2022-09-09T17:43:59;1.70;;;0.50;;
38413;SDS011;24195;48.654;9.294;2022-09-09T17:46:26;2.27;;;0.90;;
38413;SDS011;24195;48.654;9.294;2022-09-09T17:48:58;0.97;;;0.50;;
38413;SDS011;24195;48.654;9.294;2022-09-09T17:51:25;1.03;;;0.70;;
38413;SDS011;24195;48.654;9.294;2022-09-09T17:53:55;3.10;;;0.60;;
38413;SDS011;24195;48.654;9.294;2022-09-09T17:56:23;2.50;;;0.67;;
38413;SDS011;24195;48.654;9.294;2022-09-09T17:58:50;1.80;;;0.63;;
38413;SDS011;24195;48.654;9.294;2022-09-09T18:01:17;0.40;;;0.40;;
38413;SDS011;24195;48.654;9.294;2022-09-09T18:03:45;2.63;;;0.97;;
38413;SDS011;24195;48.654;9.294;2022-09-09T18:06:19;1.00;;;0.60;;
38413;SDS011;24195;48.654;9.294;2022-09-09T18:08:54;2.40;;;0.57;;
38413;SDS011;24195;48.654;9.294;2022-09-09T18:11:22;1.40;;;0.57;;
38413;SDS011;24195;48.654;9.294;2022-09-09T18:13:50;5.50;;;0.97;;
38413;SDS011;24195;48.654;9.294;2022-09-09T18:16:17;2.60;;;0.80;;
38413;SDS011;24195;48.654;9.294;2022-09-09T18:18:44;3.37;;;1.00;;
38413;SDS011;24195;48.654;9.294;2022-09-09T18:21:10;2.00;;;0.80;;
38413;SDS011;24195;48.654;9.294;2022-09-09T18:23:55;2.87;;;0.77;;
38413;SDS011;24195;48.654;9.294;2022-09-09T18:26:24;5.03;;;0.77;;
38413;SDS011;24195;48.654;9.294;2022-09-09T18:29:02;1.20;;;0.70;;
38413;SDS011;24195;48.654;9.294;2022-09-09T18:31:48;3.43;;;1.17;;
38413;SDS011;24195;48.654;9.294;2022-09-09T18:34:41;2.67;;;1.10;;
38413;SDS011;24195;48.654;9.294;2022-09-09T18:37:08;1.27;;;0.90;;
38413;SDS011;24195;48.654;9.294;2022-09-09T18:39:35;1.60;;;1.50;;
38413;SDS011;24195;48.654;9.294;2022-09-09T18:42:01;0.57;;;0.57;;
38413;SDS011;24195;48.654;9.294;2022-09-09T18:47:13;2.40;;;0.90;;
38413;SDS011;24195;48.654;9.294;2022-09-09T18:49:39;0.93;;;0.80;;
38413;SDS011;24195;48.654;9.294;2022-09-09T18:52:09;1.07;;;0.60;;
38413;SDS011;24195;48.654;9.294;2022-09-09T18:55:06;1.00;;;0.80;;
38413;SDS011;24195;48.654;9.294;2022-09-09T18:57:48;1.67;;;0.80;;
38413;SDS011;24195;48.654;9.294;2022-09-09T19:00:17;2.03;;;0.80;;
38413;SDS011;24195;48.654;9.294;2022-09-09T19:02:51;4.37;;;0.93;;